createdAt,value
2022-09-01T00:01:45.163Z,100551.41
2022-09-01T00:16:36.697Z,100556.63
2022-09-01T00:31:28.678Z,100558.45
2022-09-01T00:46:22.661Z,100553.66
2022-09-01T01:01:17.007Z,100552.91
2022-09-01T01:16:08.153Z,100536.59
2022-09-01T01:30:59.494Z,100533.32
2022-09-01T01:45:50.245Z,100537.20
2022-09-01T02:00:41.363Z,100558.17
2022-09-01T02:15:33.825Z,100548.17
2022-09-01T02:30:26.088Z,100545.37
2022-09-01T02:45:16.625Z,100548.08
2022-09-01T03:00:07.565Z,100541.66
2022-09-01T03:44:42.800Z,100543.36
2022-09-01T03:59:33.183Z,100531.87
2022-09-01T04:14:23.840Z,100534.61
2022-09-01T04:29:14.464Z,100542.52
2022-09-01T04:44:05.950Z,100541.35
2022-09-01T04:58:57.334Z,100530.91
2022-09-01T05:13:48.725Z,100531.58
2022-09-01T05:28:40.027Z,100529.80
2022-09-01T05:43:31.769Z,100541.02
2022-09-01T05:58:23.687Z,100550.94
2022-09-01T06:13:15.921Z,100550.33
2022-09-01T06:28:08.675Z,100546.29
2022-09-01T06:43:00.654Z,100560.16
2022-09-01T06:58:08.267Z,100567.81
2022-09-01T07:13:05.603Z,100570.38
2022-09-01T07:57:21.507Z,100603.63
2022-09-01T08:12:14.513Z,100606.14
2022-09-01T08:27:06.924Z,100608.49
2022-09-01T08:42:04.651Z,100604.11
2022-09-01T08:57:15.687Z,100610.05
2022-09-01T09:12:49.841Z,100612.39
2022-09-01T09:27:49.422Z,100610.66
2022-09-01T09:42:53.945Z,100603.97
2022-09-01T09:57:48.904Z,100595.83
2022-09-01T10:12:41.740Z,100588.56
2022-09-01T10:27:34.514Z,100575.73
2022-09-01T10:42:29.061Z,100565.77
2022-09-01T10:57:43.009Z,100561.57
2022-09-01T11:12:43.617Z,100557.50
2022-09-01T11:27:50.280Z,100548.87
2022-09-01T11:42:46.945Z,100534.42
2022-09-01T11:57:38.578Z,100530.45
2022-09-01T12:12:35.703Z,100521.87
2022-09-01T12:27:31.214Z,100496.88
2022-09-01T12:42:24.499Z,100502.45
2022-09-01T12:57:32.141Z,100495.47
2022-09-01T13:12:28.673Z,100485.36
2022-09-01T13:27:21.532Z,100469.11
2022-09-01T13:42:13.094Z,100460.30
2022-09-01T13:57:05.922Z,100451.64
2022-09-01T16:59:55.587Z,100333.47
2022-09-01T17:14:52.742Z,100335.92
2022-09-01T17:29:47.785Z,100339.28
2022-09-01T17:44:42.149Z,100343.73
2022-09-01T19:01:10.523Z,100389.11
2022-09-01T19:16:06.599Z,100391.70
2022-09-01T19:31:01.265Z,100394.20
2022-09-01T19:46:13.615Z,100400.67
2022-09-01T20:01:10.404Z,100398.12
2022-09-01T20:16:14.655Z,100396.28
2022-09-01T20:31:16.585Z,100398.33
2022-09-01T20:46:10.787Z,100388.16
2022-09-01T21:01:17.958Z,100386.65
2022-09-01T21:16:37.620Z,100378.91
2022-09-01T21:31:35.027Z,100388.34
2022-09-01T21:46:26.756Z,100385.08
2022-09-01T22:01:18.232Z,100391.55
2022-09-01T22:16:08.924Z,100378.50
2022-09-01T22:31:00.475Z,100373.58
2022-09-01T22:45:52.004Z,100378.77
2022-09-01T23:00:45.297Z,100380.63
2022-09-01T23:15:40.247Z,100374.55
2022-09-01T23:30:33.271Z,100367.99
2022-09-01T23:45:25.150Z,100353.74
